Time;durP1;ratioP1;P1;durP2;ratioP2;P2;SDS_P1;SDS_P2;PMS_P1;PMS_P2;Temp;Humidity;BMP_temperature;BMP_pressure;BME280_temperature;BME280_humidity;BME280_pressure;Samples;Min_cycle;Max_cycle;Signal;HPM_P1;HPM_P2
2023/05/31 00:00:03;;;;;;;12.30;5.45;;;20.60;71.30;;;;;;6246025;23;20026;-78
2023/05/31 00:02:29;;;;;;;9.40;5.55;;;20.60;71.60;;;;;;6245503;23;20012;-76
2023/05/31 00:04:55;;;;;;;10.75;5.85;;;20.60;71.60;;;;;;6245491;23;20393;-77
2023/05/31 00:07:21;;;;;;;11.65;5.60;;;20.50;72.00;;;;;;6246110;23;20000;-77
2023/05/31 00:09:46;;;;;;;13.88;5.90;;;20.50;72.00;;;;;;6245930;23;20000;-76
2023/05/31 00:12:12;;;;;;;13.82;6.53;;;20.50;72.30;;;;;;6245918;23;20075;-78
2023/05/31 00:14:38;;;;;;;9.98;6.03;;;20.50;72.20;;;;;;6246124;23;20075;-76
2023/05/31 00:17:03;;;;;;;7.10;4.90;;;20.50;72.50;;;;;;6245848;23;20090;-77
2023/05/31 00:19:29;;;;;;;10.55;5.93;;;20.50;72.90;;;;;;6245729;23;19996;-76
2023/05/31 00:21:55;;;;;;;12.32;6.32;;;20.50;72.70;;;;;;6245895;23;20091;-77
2023/05/31 00:24:21;;;;;;;11.32;6.28;;;20.50;73.00;;;;;;6246044;23;20004;-78
2023/05/31 00:26:48;;;;;;;9.23;5.70;;;20.40;73.40;;;;;;6245852;23;20000;-76
2023/05/31 00:29:14;;;;;;;10.23;5.85;;;20.40;73.50;;;;;;6245686;23;20003;-76
2023/05/31 00:31:41;;;;;;;12.30;5.88;;;20.40;73.40;;;;;;6245375;23;20476;-76
2023/05/31 00:34:07;;;;;;;10.13;5.43;;;20.40;73.80;;;;;;6245499;23;20004;-78
2023/05/31 00:36:33;;;;;;;9.20;5.85;;;20.40;74.10;;;;;;6245928;23;20004;-76
2023/05/31 00:38:58;;;;;;;9.23;5.60;;;20.40;74.20;;;;;;6245925;23;20399;-78
2023/05/31 00:41:25;;;;;;;11.30;5.82;;;20.30;74.00;;;;;;6245698;23;20012;-77
2023/05/31 00:43:51;;;;;;;10.32;5.22;;;20.30;74.40;;;;;;6245592;23;20406;-76
2023/05/31 00:46:30;;;;;;;10.73;5.88;;;20.30;74.50;;;;;;6245980;23;20000;-77
2023/05/31 00:48:56;;;;;;;12.18;6.25;;;20.30;75.10;;;;;;6218734;23;20005;-76
2023/05/31 00:51:23;;;;;;;12.00;5.60;;;20.30;74.70;;;;;;6246071;23;20011;-76
2023/05/31 00:53:51;;;;;;;13.05;5.63;;;20.20;74.70;;;;;;6245405;23;20043;-76
2023/05/31 00:56:18;;;;;;;8.68;5.40;;;20.20;75.00;;;;;;6245681;23;20075;-76
2023/05/31 00:58:45;;;;;;;14.55;6.53;;;20.10;75.30;;;;;;6246718;23;20000;-75
2023/05/31 01:01:14;;;;;;;11.63;5.95;;;20.10;75.40;;;;;;6246207;23;20082;-75
2023/05/31 01:03:40;;;;;;;9.68;5.97;;;20.10;75.60;;;;;;6245617;23;20020;-76
2023/05/31 01:06:07;;;;;;;10.05;5.93;;;20.10;76.00;;;;;;6245615;23;20000;-79
2023/05/31 01:08:34;;;;;;;8.80;6.15;;;20.00;76.60;;;;;;6245780;23;20032;-76
2023/05/31 01:11:15;;;;;;;9.75;6.78;;;20.00;76.30;;;;;;6245431;23;20465;-77
2023/05/31 01:14:15;;;;;;;9.30;6.32;;;20.00;76.60;;;;;;6245175;23;20442;-76
2023/05/31 01:16:54;;;;;;;11.48;5.97;;;19.90;77.70;;;;;;6245641;23;20022;-76
2023/05/31 01:20:00;;;;;;;9.63;5.95;;;20.00;77.90;;;;;;6245154;23;20417;-77
2023/05/31 01:22:35;;;;;;;9.85;6.57;;;20.00;76.70;;;;;;6093907;23;20015;-78
2023/05/31 01:25:32;;;;;;;10.95;6.35;;;20.00;77.50;;;;;;6094177;23;20006;-78
2023/05/31 01:28:00;;;;;;;10.18;5.78;;;20.00;78.10;;;;;;6169949;23;20012;-77
2023/05/31 01:30:29;;;;;;;10.30;5.65;;;20.00;76.80;;;;;;6245472;23;20118;-77
2023/05/31 01:32:57;;;;;;;11.30;5.53;;;20.00;76.50;;;;;;6245257;23;20315;-76
2023/05/31 01:35:23;;;;;;;8.90;5.55;;;20.00;76.50;;;;;;6245204;23;20038;-76
2023/05/31 01:37:48;;;;;;;9.95;5.88;;;20.00;76.30;;;;;;6245107;23;20000;-76
2023/05/31 01:40:16;;;;;;;9.32;5.85;;;20.00;76.30;;;;;;6245189;23;20488;-77
2023/05/31 01:42:43;;;;;;;11.25;5.70;;;20.10;76.20;;;;;;6244633;23;20496;-76
2023/05/31 01:45:10;;;;;;;9.57;6.57;;;20.10;76.30;;;;;;6245085;23;20418;-77
2023/05/31 01:47:40;;;;;;;9.98;5.50;;;20.10;76.50;;;;;;6245392;23;20012;-76
2023/05/31 01:50:07;;;;;;;11.50;5.95;;;20.00;76.30;;;;;;6244859;23;20006;-76
2023/05/31 01:52:34;;;;;;;9.77;5.93;;;20.00;76.50;;;;;;6245582;23;20005;-77
2023/05/31 01:55:00;;;;;;;11.20;6.50;;;20.00;76.50;;;;;;6245074;23;20450;-77
2023/05/31 01:57:29;;;;;;;8.70;5.55;;;19.90;76.90;;;;;;6244778;23;20141;-76
2023/05/31 01:59:56;;;;;;;12.30;5.90;;;19.80;77.30;;;;;;6245137;23;20401;-75
2023/05/31 02:02:23;;;;;;;8.23;5.53;;;19.70;77.50;;;;;;6245028;23;20012;-78
2023/05/31 02:04:49;;;;;;;10.20;6.30;;;19.80;77.60;;;;;;6244803;23;20078;-78
2023/05/31 02:07:14;;;;;;;10.90;6.45;;;19.80;77.70;;;;;;6245242;23;20438;-77
2023/05/31 02:09:40;;;;;;;8.93;5.82;;;19.80;77.60;;;;;;6247026;23;19992;-77
2023/05/31 02:12:06;;;;;;;13.25;6.25;;;19.80;77.80;;;;;;6247010;23;20030;-76
2023/05/31 02:14:32;;;;;;;9.27;5.72;;;19.70;78.10;;;;;;6247533;23;20038;-77
2023/05/31 02:16:57;;;;;;;10.65;6.50;;;19.60;77.90;;;;;;6247394;23;20303;-77
2023/05/31 02:19:25;;;;;;;11.45;5.57;;;19.60;78.10;;;;;;6248969;23;20001;-77
2023/05/31 02:21:51;;;;;;;10.20;5.97;;;19.60;78.20;;;;;;6265923;23;20032;-77
2023/05/31 02:24:17;;;;;;;12.27;6.32;;;19.60;77.90;;;;;;6257702;23;20459;-75
2023/05/31 02:26:43;;;;;;;11.10;5.90;;;19.60;78.20;;;;;;6248910;23;20000;-77
2023/05/31 02:29:09;;;;;;;9.07;5.93;;;19.60;78.10;;;;;;6249466;23;20038;-78
2023/05/31 02:31:35;;;;;;;11.75;5.68;;;19.60;78.10;;;;;;6248843;23;20015;-76
2023/05/31 02:34:00;;;;;;;8.55;5.70;;;19.60;77.90;;;;;;6247893;23;20322;-77
2023/05/31 02:36:28;;;;;;;11.18;5.50;;;19.60;77.80;;;;;;6247882;23;20007;-76
2023/05/31 02:38:54;;;;;;;12.25;5.03;;;19.60;77.60;;;;;;6246984;23;20005;-77
2023/05/31 02:41:20;;;;;;;8.48;5.32;;;19.60;77.40;;;;;;6247471;23;20066;-76
2023/05/31 02:43:46;;;;;;;7.50;5.45;;;19.60;77.60;;;;;;6246822;23;20015;-76
2023/05/31 02:46:11;;;;;;;10.15;5.50;;;19.60;77.50;;;;;;6247033;23;19997;-76
2023/05/31 02:48:37;;;;;;;9.82;5.70;;;19.60;77.50;;;;;;6247320;23;20007;-77
2023/05/31 02:51:03;;;;;;;12.55;6.55;;;19.70;77.50;;;;;;6247450;23;20004;-77
2023/05/31 02:53:29;;;;;;;12.90;6.25;;;19.70;77.80;;;;;;6247254;23;20431;-76
2023/05/31 02:55:55;;;;;;;12.40;7.13;;;19.60;78.10;;;;;;6247017;23;20070;-77
2023/05/31 02:58:21;;;;;;;12.70;7.18;;;19.60;78.40;;;;;;6246859;23;20008;-77
2023/05/31 03:00:46;;;;;;;13.45;6.68;;;19.60;78.70;;;;;;6246637;23;20002;-77
2023/05/31 03:03:12;;;;;;;10.80;6.25;;;19.50;79.10;;;;;;6247153;23;20000;-76
2023/05/31 03:05:38;;;;;;;10.15;6.93;;;19.50;79.30;;;;;;6250933;23;20402;-77
2023/05/31 03:08:03;;;;;;;12.35;6.47;;;19.50;79.30;;;;;;6222334;23;20341;-77
2023/05/31 03:10:29;;;;;;;10.10;6.60;;;19.50;79.50;;;;;;6247918;23;20004;-77
2023/05/31 03:12:55;;;;;;;12.40;7.35;;;19.50;79.50;;;;;;6247077;23;20010;-76
2023/05/31 03:15:21;;;;;;;10.35;6.82;;;19.50;79.60;;;;;;6246665;23;20346;-77
2023/05/31 03:17:47;;;;;;;12.25;6.65;;;19.40;79.80;;;;;;6247017;23;20011;-76
2023/05/31 03:20:12;;;;;;;10.55;6.32;;;19.40;80.10;;;;;;6246395;23;20322;-77
2023/05/31 03:22:39;;;;;;;12.52;6.65;;;19.40;80.00;;;;;;6247020;23;20052;-75
2023/05/31 03:25:05;;;;;;;11.13;6.50;;;19.40;79.90;;;;;;6246590;23;20000;-75
2023/05/31 03:27:31;;;;;;;11.25;6.43;;;19.40;80.10;;;;;;6247135;23;20012;-76
2023/05/31 03:29:56;;;;;;;10.32;6.30;;;19.40;79.90;;;;;;6246395;23;20427;-75
2023/05/31 03:32:22;;;;;;;11.48;5.90;;;19.30;80.00;;;;;;6246831;23;20012;-76
2023/05/31 03:34:48;;;;;;;11.27;6.00;;;19.30;80.40;;;;;;6246649;23;20000;-77
2023/05/31 03:37:13;;;;;;;12.95;5.97;;;19.30;80.40;;;;;;6246562;23;20001;-76
2023/05/31 03:39:39;;;;;;;9.95;5.95;;;19.30;80.50;;;;;;6246577;23;20008;-76
2023/05/31 03:42:06;;;;;;;9.60;6.28;;;19.30;80.40;;;;;;6246250;23;20066;-77
2023/05/31 03:44:31;;;;;;;11.93;6.10;;;19.20;80.60;;;;;;6245838;23;20004;-77
2023/05/31 03:46:58;;;;;;;12.55;5.88;;;19.30;80.30;;;;;;6246371;23;20010;-76
2023/05/31 03:49:24;;;;;;;9.88;5.82;;;19.20;80.00;;;;;;6245810;23;20060;-76
2023/05/31 03:51:49;;;;;;;8.48;5.30;;;19.30;80.20;;;;;;6245889;23;20055;-76
2023/05/31 03:54:15;;;;;;;10.85;5.75;;;19.30;80.10;;;;;;6245945;23;20031;-78
2023/05/31 03:56:41;;;;;;;12.98;5.85;;;19.30;79.90;;;;;;6246045;23;20032;-78
2023/05/31 03:59:07;;;;;;;9.98;5.45;;;19.30;80.40;;;;;;6245956;23;19996;-76
2023/05/31 04:01:33;;;;;;;10.18;5.63;;;19.40;79.80;;;;;;6245601;23;20008;-76
2023/05/31 04:03:59;;;;;;;11.60;6.15;;;19.40;79.70;;;;;;6246047;23;20480;-76
2023/05/31 04:06:26;;;;;;;16.38;6.13;;;19.40;79.70;;;;;;6245993;23;20004;-78
2023/05/31 04:08:52;;;;;;;11.55;5.80;;;19.50;79.70;;;;;;6245733;23;20492;-76
2023/05/31 04:11:18;;;;;;;10.35;5.65;;;19.50;79.60;;;;;;6245914;23;19996;-76
2023/05/31 04:13:43;;;;;;;10.00;5.78;;;19.40;79.50;;;;;;6245848;23;20024;-76
2023/05/31 04:16:09;;;;;;;13.07;5.78;;;19.50;79.60;;;;;;6245998;23;20034;-77
2023/05/31 04:18:35;;;;;;;10.20;6.00;;;19.50;79.40;;;;;;6245788;23;20078;-75
2023/05/31 04:21:01;;;;;;;10.25;5.88;;;19.50;79.60;;;;;;6245642;23;20004;-76
2023/05/31 04:23:26;;;;;;;11.45;6.00;;;19.50;79.60;;;;;;6218922;23;20012;-76
2023/05/31 04:25:52;;;;;;;9.48;5.50;;;19.50;79.50;;;;;;6246138;23;20437;-77
2023/05/31 04:28:19;;;;;;;9.15;5.78;;;19.50;79.50;;;;;;6246324;23;20024;-78
2023/05/31 04:30:45;;;;;;;9.20;5.82;;;19.50;79.40;;;;;;6246297;23;20357;-76
2023/05/31 04:33:11;;;;;;;10.77;6.00;;;19.50;79.30;;;;;;6245767;23;20426;-77
2023/05/31 04:35:38;;;;;;;12.95;6.53;;;19.50;79.40;;;;;;6245236;23;20426;-77
2023/05/31 04:38:04;;;;;;;11.88;6.10;;;19.50;79.20;;;;;;6245882;23;20011;-77
2023/05/31 04:40:31;;;;;;;9.75;5.50;;;19.50;79.30;;;;;;6246264;23;20004;-77
2023/05/31 04:43:00;;;;;;;10.38;6.22;;;19.50;79.30;;;;;;6257640;23;20073;-75
2023/05/31 04:45:27;;;;;;;14.73;7.78;;;19.40;79.40;;;;;;6258846;23;20444;-77
2023/05/31 04:47:53;;;;;;;11.02;6.13;;;19.40;79.50;;;;;;6246850;23;20035;-77
2023/05/31 04:50:19;;;;;;;8.02;5.85;;;19.30;79.30;;;;;;6245956;23;20373;-76
2023/05/31 04:52:45;;;;;;;11.95;6.45;;;19.30;79.40;;;;;;6245848;23;20008;-77
2023/05/31 04:55:11;;;;;;;8.48;4.97;;;19.30;79.50;;;;;;6246058;23;19996;-76
2023/05/31 04:57:37;;;;;;;8.45;5.20;;;19.40;79.30;;;;;;6251980;23;20078;-77
2023/05/31 05:00:08;;;;;;;10.70;5.13;;;19.40;79.30;;;;;;6250083;23;20481;-76
2023/05/31 05:02:34;;;;;;;12.80;6.05;;;19.40;79.40;;;;;;6246358;23;20087;-78
2023/05/31 05:05:00;;;;;;;11.85;5.25;;;19.50;79.00;;;;;;6245717;23;20012;-76
2023/05/31 05:07:26;;;;;;;13.43;5.50;;;19.50;79.10;;;;;;6245540;23;20012;-77
2023/05/31 05:09:51;;;;;;;8.93;5.80;;;19.60;78.90;;;;;;6245504;23;20502;-76
2023/05/31 05:12:17;;;;;;;11.95;6.00;;;19.80;78.40;;;;;;6245638;23;20008;-77
2023/05/31 05:14:43;;;;;;;9.68;5.63;;;19.90;78.00;;;;;;6245767;23;20012;-76
2023/05/31 05:17:09;;;;;;;8.57;5.57;;;20.10;77.80;;;;;;6245384;23;20015;-76
2023/05/31 05:19:35;;;;;;;9.77;5.70;;;20.40;77.10;;;;;;6245197;23;20004;-76
2023/05/31 05:22:00;;;;;;;10.15;6.00;;;20.70;76.20;;;;;;6245269;23;20012;-77
2023/05/31 05:24:26;;;;;;;10.45;5.38;;;20.90;75.50;;;;;;6245236;23;20116;-76
2023/05/31 05:26:52;;;;;;;9.23;4.88;;;21.30;74.90;;;;;;6245163;23;20395;-77
2023/05/31 05:29:18;;;;;;;8.07;5.47;;;21.60;73.70;;;;;;6245391;23;20438;-76
2023/05/31 05:31:43;;;;;;;10.77;4.63;;;21.90;73.00;;;;;;6245350;23;20346;-77
2023/05/31 05:34:09;;;;;;;17.15;6.10;;;22.20;72.00;;;;;;6245524;23;20000;-76
2023/05/31 05:36:36;;;;;;;10.77;5.40;;;22.50;71.20;;;;;;6245482;23;20008;-77
2023/05/31 05:39:05;;;;;;;11.23;5.97;;;22.80;70.30;;;;;;6244992;23;20440;-76
2023/05/31 05:41:31;;;;;;;11.05;5.10;;;23.20;69.60;;;;;;6245190;23;20004;-77
2023/05/31 05:43:57;;;;;;;9.20;4.65;;;23.50;68.70;;;;;;6245264;23;20066;-75
2023/05/31 05:46:23;;;;;;;9.82;4.53;;;23.60;67.90;;;;;;6245068;23;20083;-77
2023/05/31 05:48:49;;;;;;;7.30;4.53;;;23.70;67.40;;;;;;6245068;23;20000;-77
2023/05/31 05:51:15;;;;;;;7.70;4.57;;;23.90;67.30;;;;;;6244939;23;20086;-77
2023/05/31 05:53:40;;;;;;;11.98;5.75;;;24.00;67.50;;;;;;6245835;23;19996;-76
2023/05/31 05:56:06;;;;;;;13.68;5.00;;;24.20;66.30;;;;;;6245679;23;20053;-77
2023/05/31 05:58:32;;;;;;;11.73;4.53;;;24.30;65.90;;;;;;6218384;23;20051;-77
2023/05/31 06:00:58;;;;;;;8.52;4.63;;;24.40;65.70;;;;;;6244889;23;20012;-76
2023/05/31 06:03:23;;;;;;;9.73;4.90;;;24.50;65.20;;;;;;6244620;23;20000;-77
2023/05/31 06:05:49;;;;;;;11.23;4.60;;;24.60;65.30;;;;;;6244471;23;20008;-77
2023/05/31 06:08:15;;;;;;;8.23;4.38;;;24.70;65.10;;;;;;6244820;23;20058;-76
2023/05/31 06:10:41;;;;;;;12.27;4.72;;;24.80;64.70;;;;;;6244817;23;19996;-75
2023/05/31 06:13:07;;;;;;;11.43;4.75;;;25.00;64.70;;;;;;6245094;23;20043;-77
2023/05/31 06:15:33;;;;;;;6.90;4.70;;;25.30;64.20;;;;;;6244834;23;19996;-76
2023/05/31 06:17:59;;;;;;;8.52;4.72;;;25.60;64.00;;;;;;6245036;23;20307;-77
2023/05/31 06:20:26;;;;;;;8.57;4.55;;;25.60;63.10;;;;;;6244793;23;20000;-78
2023/05/31 06:22:52;;;;;;;9.35;4.78;;;25.70;63.20;;;;;;6244723;23;20012;-75
2023/05/31 06:25:19;;;;;;;9.82;4.45;;;25.80;62.90;;;;;;6245104;23;20008;-77
2023/05/31 06:27:45;;;;;;;10.82;4.65;;;25.90;62.50;;;;;;6244701;23;20008;-77
2023/05/31 06:30:15;;;;;;;7.25;4.50;;;26.10;62.10;;;;;;6244449;23;20019;-76
2023/05/31 06:32:40;;;;;;;8.68;4.38;;;26.10;62.10;;;;;;6245283;23;20076;-78
2023/05/31 06:35:06;;;;;;;8.95;4.22;;;26.30;61.90;;;;;;6245058;23;20394;-77
2023/05/31 06:37:32;;;;;;;10.18;4.60;;;26.60;61.70;;;;;;6244717;23;20027;-77
2023/05/31 06:39:58;;;;;;;10.90;4.40;;;26.70;61.20;;;;;;6245320;23;20433;-78
2023/05/31 06:42:24;;;;;;;13.55;4.80;;;26.60;60.80;;;;;;6245238;23;20385;-77
2023/05/31 06:44:51;;;;;;;8.23;4.43;;;26.60;60.50;;;;;;6244946;23;20032;-76
2023/05/31 06:47:16;;;;;;;13.32;4.57;;;26.60;60.50;;;;;;6245722;23;20008;-76
2023/05/31 06:49:42;;;;;;;21.25;4.47;;;26.80;60.00;;;;;;6245135;23;20004;-77
2023/05/31 06:52:08;;;;;;;11.75;4.68;;;26.80;60.30;;;;;;6244934;23;20480;-77
2023/05/31 06:54:36;;;;;;;10.27;4.50;;;26.70;60.20;;;;;;6245928;23;20003;-77
2023/05/31 06:57:03;;;;;;;11.13;4.32;;;26.40;60.40;;;;;;6247503;23;20000;-77
2023/05/31 06:59:28;;;;;;;8.13;4.65;;;26.40;60.80;;;;;;6247202;23;20022;-78
2023/05/31 07:01:54;;;;;;;9.23;4.55;;;26.40;60.50;;;;;;6247413;23;20398;-77
2023/05/31 07:04:20;;;;;;;10.70;4.65;;;26.50;60.30;;;;;;6254552;23;20322;-78
2023/05/31 07:06:46;;;;;;;11.35;5.13;;;26.40;60.50;;;;;;6266836;23;20000;-78
2023/05/31 07:09:12;;;;;;;10.30;4.90;;;26.50;60.50;;;;;;6254652;23;20027;-78
2023/05/31 07:11:42;;;;;;;8.07;4.38;;;26.60;60.30;;;;;;6248944;23;20016;-77
2023/05/31 07:14:08;;;;;;;8.05;4.65;;;26.60;60.50;;;;;;6247375;23;20449;-77
2023/05/31 07:16:33;;;;;;;10.27;4.65;;;26.80;60.00;;;;;;6247270;23;20178;-77
2023/05/31 07:18:59;;;;;;;11.32;4.60;;;26.90;59.70;;;;;;6247481;23;19996;-78
2023/05/31 07:21:25;;;;;;;8.35;4.70;;;27.00;59.60;;;;;;6247028;23;20015;-76
2023/05/31 07:23:51;;;;;;;9.80;4.78;;;27.00;59.30;;;;;;6247424;23;20008;-77
2023/05/31 07:26:17;;;;;;;8.50;4.75;;;27.10;59.40;;;;;;6247612;23;20023;-78
2023/05/31 07:28:44;;;;;;;7.50;4.22;;;27.10;59.40;;;;;;6246539;23;20099;-79
2023/05/31 07:31:10;;;;;;;10.50;4.72;;;27.10;59.50;;;;;;6247255;23;20030;-78
2023/05/31 07:33:36;;;;;;;9.88;4.78;;;27.10;59.30;;;;;;6247236;23;20008;-79
2023/05/31 07:36:01;;;;;;;10.20;4.75;;;27.00;59.40;;;;;;6247448;23;20004;-79
2023/05/31 07:38:27;;;;;;;7.68;4.55;;;26.90;59.70;;;;;;6255744;23;20026;-79
2023/05/31 07:40:53;;;;;;;27.45;6.15;;;26.80;60.10;;;;;;6256424;23;20064;-78
2023/05/31 07:43:21;;;;;;;38.60;6.53;;;26.80;59.70;;;;;;6259595;23;20003;-78
2023/05/31 07:45:48;;;;;;;14.18;5.30;;;26.70;59.80;;;;;;6256726;23;20000;-80
2023/05/31 07:48:13;;;;;;;9.73;4.43;;;26.70;59.90;;;;;;6248810;23;20094;-78
2023/05/31 07:50:39;;;;;;;34.80;6.53;;;26.70;59.90;;;;;;6247980;23;20003;-79
2023/05/31 07:53:05;;;;;;;10.10;4.80;;;26.70;60.10;;;;;;6246862;23;20000;-79
2023/05/31 07:55:30;;;;;;;17.30;5.43;;;26.70;60.00;;;;;;6246873;23;20007;-79
2023/05/31 07:57:56;;;;;;;66.88;9.65;;;26.60;59.80;;;;;;6246874;23;20006;-78
2023/05/31 08:00:23;;;;;;;21.40;6.07;;;26.40;59.80;;;;;;6247685;23;20004;-78
2023/05/31 08:02:49;;;;;;;23.13;5.53;;;26.30;59.80;;;;;;6246499;23;20012;-79
2023/05/31 08:05:15;;;;;;;11.48;4.53;;;26.30;59.90;;;;;;6246370;23;20462;-79
2023/05/31 08:07:40;;;;;;;10.40;4.15;;;26.10;59.90;;;;;;6246461;23;20000;-80
2023/05/31 08:10:06;;;;;;;8.60;4.22;;;26.00;59.70;;;;;;6246275;23;20000;-79
2023/05/31 08:12:32;;;;;;;8.80;4.38;;;26.00;59.80;;;;;;6246317;23;20473;-79
2023/05/31 08:14:58;;;;;;;9.27;4.55;;;26.10;60.00;;;;;;6246282;23;20043;-81
2023/05/31 08:17:25;;;;;;;10.85;4.40;;;26.10;59.80;;;;;;6246188;23;20000;-79
2023/05/31 08:19:51;;;;;;;9.23;4.28;;;26.10;59.90;;;;;;6246497;23;20019;-79
2023/05/31 08:22:16;;;;;;;32.03;5.97;;;26.10;60.00;;;;;;6246373;23;20015;-78
2023/05/31 08:24:42;;;;;;;25.17;5.28;;;26.10;59.90;;;;;;6246324;23;19996;-79
2023/05/31 08:27:08;;;;;;;32.85;7.93;;;26.00;59.70;;;;;;6246179;23;20268;-79
2023/05/31 08:29:34;;;;;;;11.10;4.85;;;26.00;59.70;;;;;;6245947;23;20000;-80
2023/05/31 08:32:00;;;;;;;63.45;9.68;;;25.80;59.80;;;;;;6246011;23;20102;-79
2023/05/31 08:34:27;;;;;;;23.13;6.10;;;25.70;60.00;;;;;;6246261;23;20020;-78
2023/05/31 08:36:53;;;;;;;11.20;4.60;;;25.50;60.30;;;;;;6246599;23;20066;-79
2023/05/31 08:39:18;;;;;;;10.55;4.40;;;25.50;60.60;;;;;;6246090;23;20008;-78
2023/05/31 08:42:01;;;;;;;8.85;4.72;;;25.60;60.60;;;;;;6245516;23;20008;-79
2023/05/31 08:44:29;;;;;;;10.63;4.60;;;25.50;60.20;;;;;;6245675;23;20019;-79
2023/05/31 08:47:16;;;;;;;9.52;4.45;;;25.50;60.50;;;;;;6246147;23;20074;-78
2023/05/31 08:49:44;;;;;;;7.13;4.20;;;25.50;60.10;;;;;;6245817;23;20034;-75
2023/05/31 08:52:10;;;;;;;19.98;5.82;;;25.50;60.20;;;;;;6245534;23;20061;-78
2023/05/31 08:54:37;;;;;;;93.22;11.85;;;25.50;60.10;;;;;;6246301;23;20130;-78
2023/05/31 08:57:04;;;;;;;40.03;6.20;;;25.60;60.00;;;;;;6246065;23;20138;-77
2023/05/31 08:59:30;;;;;;;10.85;4.88;;;25.60;59.70;;;;;;6245899;23;20058;-78
2023/05/31 09:01:58;;;;;;;10.77;3.85;;;25.60;59.40;;;;;;6246298;23;20008;-80
2023/05/31 09:04:25;;;;;;;7.90;4.32;;;25.70;59.10;;;;;;6246632;23;20020;-79
2023/05/31 09:06:51;;;;;;;5.78;3.88;;;25.70;58.60;;;;;;6247222;23;20051;-79
2023/05/31 09:09:18;;;;;;;10.45;4.45;;;25.70;58.40;;;;;;6246713;23;20011;-79
2023/05/31 09:11:45;;;;;;;7.15;3.85;;;25.80;58.50;;;;;;6245751;23;20008;-79
2023/05/31 09:14:11;;;;;;;8.95;4.15;;;25.70;58.00;;;;;;6246048;23;20046;-79
2023/05/31 09:16:37;;;;;;;8.18;4.30;;;25.70;58.40;;;;;;6245361;23;19996;-79
2023/05/31 09:19:06;;;;;;;8.25;4.13;;;25.70;58.60;;;;;;6245485;23;20011;-79
2023/05/31 09:21:39;;;;;;;6.85;3.95;;;25.80;58.30;;;;;;6246050;23;20032;-79
2023/05/31 09:24:05;;;;;;;11.15;4.82;;;25.80;58.10;;;;;;6245896;23;20008;-79
2023/05/31 09:26:32;;;;;;;7.25;4.30;;;25.80;57.70;;;;;;6245831;23;20007;-78
2023/05/31 09:28:59;;;;;;;10.27;4.07;;;25.80;57.20;;;;;;6245754;23;20000;-79
2023/05/31 09:31:25;;;;;;;9.13;3.53;;;25.90;57.00;;;;;;6245433;23;20000;-81
2023/05/31 09:33:52;;;;;;;6.43;4.18;;;25.90;55.90;;;;;;6245879;23;19996;-80
2023/05/31 09:36:29;;;;;;;10.73;5.90;;;25.80;55.80;;;;;;6246152;23;20079;-78
2023/05/31 09:39:01;;;;;;;8.35;3.70;;;25.80;55.80;;;;;;6246143;23;20450;-79
2023/05/31 09:41:27;;;;;;;7.70;4.28;;;25.80;55.30;;;;;;6245390;23;20004;-79
2023/05/31 09:43:53;;;;;;;8.10;3.83;;;25.80;55.20;;;;;;6245649;23;20011;-79
2023/05/31 09:46:22;;;;;;;8.15;4.55;;;25.90;55.50;;;;;;6245890;23;20004;-80
2023/05/31 09:48:58;;;;;;;7.97;4.28;;;25.90;55.60;;;;;;6245918;23;20083;-79
2023/05/31 09:51:24;;;;;;;8.18;4.25;;;25.90;55.60;;;;;;6245711;23;20011;-79
2023/05/31 09:53:57;;;;;;;7.47;4.45;;;26.00;55.40;;;;;;6246241;23;19992;-79
2023/05/31 09:56:25;;;;;;;7.65;4.32;;;25.90;55.10;;;;;;6245047;23;20023;-79
2023/05/31 09:58:52;;;;;;;8.30;4.00;;;25.90;55.60;;;;;;6245511;23;20380;-79
2023/05/31 10:01:21;;;;;;;9.45;5.63;;;26.00;55.80;;;;;;6250191;23;20008;-78
2023/05/31 10:03:49;;;;;;;21.25;7.72;;;26.00;56.10;;;;;;6246768;23;20024;-78
2023/05/31 10:06:19;;;;;;;11.35;5.20;;;26.10;56.10;;;;;;6245687;23;20012;-78
2023/05/31 10:08:46;;;;;;;7.38;4.22;;;26.10;56.10;;;;;;6245811;23;20079;-77
2023/05/31 10:11:16;;;;;;;7.13;3.92;;;26.10;55.80;;;;;;6245630;23;20020;-77
2023/05/31 10:13:44;;;;;;;31.17;6.57;;;26.20;55.90;;;;;;6244842;23;20008;-79
2023/05/31 10:16:11;;;;;;;12.93;5.72;;;26.20;55.70;;;;;;6244862;23;20015;-78
2023/05/31 10:18:47;;;;;;;9.95;4.72;;;26.30;55.50;;;;;;6244615;23;20011;-79
2023/05/31 10:21:24;;;;;;;11.63;5.00;;;26.40;55.10;;;;;;6218407;23;20043;-78
2023/05/31 10:24:02;;;;;;;15.18;4.88;;;26.60;55.20;;;;;;6246101;23;20075;-78
2023/05/31 10:26:48;;;;;;;7.63;3.80;;;26.60;54.90;;;;;;6247421;23;20445;-79
2023/05/31 10:29:23;;;;;;;10.52;4.15;;;26.80;55.10;;;;;;6256973;23;20000;-80
2023/05/31 10:31:50;;;;;;;11.68;4.63;;;26.80;54.90;;;;;;6259901;23;20010;-78
2023/05/31 10:34:21;;;;;;;8.40;4.32;;;26.90;54.60;;;;;;6222693;23;20407;-78
2023/05/31 10:36:48;;;;;;;11.30;5.15;;;26.90;54.80;;;;;;6220737;23;20418;-79
2023/05/31 10:39:40;;;;;;;14.27;4.75;;;27.00;54.40;;;;;;6246961;23;20004;-79
2023/05/31 10:42:18;;;;;;;12.43;4.70;;;27.10;54.50;;;;;;6246518;23;20099;-80
2023/05/31 10:45:11;;;;;;;6.93;4.57;;;27.20;54.20;;;;;;6246651;23;20322;-79
2023/05/31 10:47:49;;;;;;;7.22;4.22;;;27.20;54.00;;;;;;6220887;23;20019;-79
2023/05/31 10:50:20;;;;;;;7.30;4.07;;;27.20;53.80;;;;;;6246794;23;20453;-79
2023/05/31 10:52:49;;;;;;;9.13;3.97;;;27.30;53.80;;;;;;6246252;23;20066;-78
2023/05/31 10:55:22;;;;;;;7.35;4.55;;;27.30;53.40;;;;;;6219965;23;20074;-78
2023/05/31 10:57:56;;;;;;;11.17;5.90;;;27.40;53.30;;;;;;6246644;23;20000;-77
2023/05/31 11:00:23;;;;;;;6.57;4.40;;;27.40;53.50;;;;;;6246727;23;20091;-78
2023/05/31 11:02:51;;;;;;;8.23;4.45;;;27.40;53.80;;;;;;6246405;23;20008;-79
2023/05/31 11:05:26;;;;;;;6.68;4.25;;;27.30;54.00;;;;;;6246656;23;20023;-80
2023/05/31 11:07:53;;;;;;;5.60;4.13;;;27.30;54.20;;;;;;6247790;23;20008;-80
2023/05/31 11:10:31;;;;;;;9.80;4.45;;;27.30;55.10;;;;;;6247001;23;19996;-79
2023/05/31 11:13:04;;;;;;;7.38;4.18;;;27.30;54.40;;;;;;6220395;23;20031;-79
2023/05/31 11:15:42;;;;;;;7.75;4.50;;;27.30;54.50;;;;;;6246653;23;20000;-79
2023/05/31 11:18:28;;;;;;;8.55;4.13;;;27.40;54.60;;;;;;6247135;23;20361;-80
2023/05/31 11:20:54;;;;;;;6.32;4.60;;;27.30;54.50;;;;;;6245573;23;20008;-79
2023/05/31 11:23:28;;;;;;;9.93;4.70;;;27.20;54.20;;;;;;6246774;23;20004;-77
2023/05/31 11:26:20;;;;;;;7.28;3.60;;;27.10;54.20;;;;;;6246918;23;20008;-79
2023/05/31 11:29:00;;;;;;;6.28;3.85;;;27.20;54.40;;;;;;6246539;23;20000;-79
2023/05/31 11:31:48;;;;;;;7.90;4.35;;;27.20;55.00;;;;;;6247033;23;20007;-79
2023/05/31 11:34:27;;;;;;;7.53;4.40;;;27.20;54.50;;;;;;6246273;23;20120;-80
2023/05/31 11:36:55;;;;;;;6.80;3.63;;;27.20;54.60;;;;;;6246383;23;20012;-80
2023/05/31 11:39:21;;;;;;;7.85;3.60;;;27.20;54.40;;;;;;6246640;23;20088;-78
2023/05/31 11:41:47;;;;;;;8.90;3.78;;;27.30;54.20;;;;;;6246406;23;20040;-79
2023/05/31 11:44:19;;;;;;;13.57;4.20;;;27.30;53.90;;;;;;6247525;23;20028;-79
2023/05/31 11:46:48;;;;;;;7.63;4.23;;;27.30;53.50;;;;;;6247295;23;20008;-78
2023/05/31 11:49:14;;;;;;;8.32;3.70;;;27.30;53.50;;;;;;6220220;23;20699;-78
2023/05/31 11:51:44;;;;;;;8.57;4.10;;;27.40;53.40;;;;;;6246424;23;19996;-79
2023/05/31 11:54:11;;;;;;;6.97;3.55;;;27.40;53.40;;;;;;6246745;23;20011;-79
2023/05/31 11:56:38;;;;;;;6.95;3.60;;;27.40;53.00;;;;;;6246128;23;20010;-81
2023/05/31 11:59:03;;;;;;;8.18;3.53;;;27.50;52.80;;;;;;6246592;23;20000;-79
2023/05/31 12:01:36;;;;;;;7.38;4.00;;;27.50;52.20;;;;;;6246748;23;20019;-78
2023/05/31 12:04:01;;;;;;;8.05;4.05;;;27.60;52.30;;;;;;6219441;23;20096;-77
2023/05/31 12:06:28;;;;;;;6.78;3.13;;;27.80;51.90;;;;;;6246744;23;20448;-80
2023/05/31 12:08:54;;;;;;;9.60;3.70;;;27.80;51.70;;;;;;6246695;23;20248;-79
2023/05/31 12:11:21;;;;;;;6.30;3.15;;;27.70;51.70;;;;;;6219937;23;20008;-80
2023/05/31 12:13:47;;;;;;;4.75;3.33;;;27.70;51.60;;;;;;6247123;23;20004;-78
2023/05/31 12:16:13;;;;;;;8.30;3.58;;;27.70;51.70;;;;;;6246572;23;20000;-78
2023/05/31 12:18:39;;;;;;;9.05;3.72;;;27.60;51.50;;;;;;6246244;23;20054;-80
2023/05/31 12:21:11;;;;;;;8.20;3.55;;;27.60;52.20;;;;;;6246296;23;20007;-80
2023/05/31 12:23:57;;;;;;;7.68;3.63;;;27.50;53.00;;;;;;6246600;23;20000;-79
2023/05/31 12:26:24;;;;;;;11.65;4.00;;;27.50;53.60;;;;;;6246404;23;20300;-79
2023/05/31 12:28:50;;;;;;;6.55;3.03;;;27.40;54.30;;;;;;6245944;23;20000;-79
2023/05/31 12:31:23;;;;;;;6.80;3.00;;;27.20;54.10;;;;;;6246093;23;20338;-79
2023/05/31 12:33:59;;;;;;;7.55;3.28;;;27.10;54.60;;;;;;6246072;23;20008;-79
2023/05/31 12:36:26;;;;;;;7.93;3.28;;;27.00;54.00;;;;;;6245903;23;20016;-78
2023/05/31 12:38:59;;;;;;;7.22;4.03;;;26.90;54.20;;;;;;6246211;23;20082;-79
2023/05/31 12:41:26;;;;;;;9.32;4.32;;;26.90;54.00;;;;;;6246086;23;20016;-79
2023/05/31 12:43:53;;;;;;;7.85;3.50;;;27.00;54.20;;;;;;6246114;23;20008;-78